sensor_id;sensor_type;location;lat;lon;timestamp;P1;durP1;ratioP1;P2;durP2;ratioP2
611;SDS011;293;53.888;11.464;2022-08-19T00:01:11;28.63;;;26.43;;
611;SDS011;293;53.888;11.464;2022-08-19T00:03:38;30.87;;;28.10;;
611;SDS011;293;53.888;11.464;2022-08-19T00:06:07;32.17;;;29.67;;
611;SDS011;293;53.888;11.464;2022-08-19T00:08:34;26.63;;;24.40;;
611;SDS011;293;53.888;11.464;2022-08-19T00:11:01;29.47;;;26.67;;
611;SDS011;293;53.888;11.464;2022-08-19T00:13:28;30.03;;;27.40;;
611;SDS011;293;53.888;11.464;2022-08-19T00:15:55;29.03;;;26.50;;
611;SDS011;293;53.888;11.464;2022-08-19T00:18:23;29.10;;;26.63;;
611;SDS011;293;53.888;11.464;2022-08-19T00:20:50;28.90;;;26.50;;
611;SDS011;293;53.888;11.464;2022-08-19T00:23:19;28.67;;;25.97;;
611;SDS011;293;53.888;11.464;2022-08-19T00:25:45;30.67;;;28.07;;
611;SDS011;293;53.888;11.464;2022-08-19T00:28:12;28.00;;;25.70;;
611;SDS011;293;53.888;11.464;2022-08-19T00:30:40;30.20;;;27.50;;
611;SDS011;293;53.888;11.464;2022-08-19T00:33:06;27.23;;;24.83;;
611;SDS011;293;53.888;11.464;2022-08-19T00:35:33;27.67;;;25.13;;
611;SDS011;293;53.888;11.464;2022-08-19T00:38:00;25.07;;;22.97;;
611;SDS011;293;53.888;11.464;2022-08-19T00:40:29;30.03;;;27.07;;
611;SDS011;293;53.888;11.464;2022-08-19T00:42:56;32.90;;;30.10;;
611;SDS011;293;53.888;11.464;2022-08-19T00:45:24;31.33;;;28.30;;
611;SDS011;293;53.888;11.464;2022-08-19T00:47:52;25.20;;;23.00;;
611;SDS011;293;53.888;11.464;2022-08-19T00:50:20;25.47;;;23.23;;
611;SDS011;293;53.888;11.464;2022-08-19T00:52:48;25.70;;;23.70;;
611;SDS011;293;53.888;11.464;2022-08-19T00:55:18;29.10;;;26.07;;
611;SDS011;293;53.888;11.464;2022-08-19T00:57:49;27.57;;;25.03;;
611;SDS011;293;53.888;11.464;2022-08-19T01:00:19;26.20;;;24.10;;
611;SDS011;293;53.888;11.464;2022-08-19T01:02:47;33.80;;;30.60;;
611;SDS011;293;53.888;11.464;2022-08-19T01:05:15;27.60;;;25.30;;
611;SDS011;293;53.888;11.464;2022-08-19T01:07:46;28.23;;;25.97;;
611;SDS011;293;53.888;11.464;2022-08-19T01:10:14;28.70;;;26.30;;
611;SDS011;293;53.888;11.464;2022-08-19T01:12:43;28.53;;;26.27;;
611;SDS011;293;53.888;11.464;2022-08-19T01:15:14;33.50;;;30.60;;
611;SDS011;293;53.888;11.464;2022-08-19T01:17:44;35.83;;;32.53;;
611;SDS011;293;53.888;11.464;2022-08-19T01:20:12;33.90;;;30.87;;
611;SDS011;293;53.888;11.464;2022-08-19T01:22:43;28.00;;;25.50;;
611;SDS011;293;53.888;11.464;2022-08-19T01:25:12;28.90;;;26.70;;
611;SDS011;293;53.888;11.464;2022-08-19T01:27:42;29.63;;;27.13;;
611;SDS011;293;53.888;11.464;2022-08-19T01:30:10;28.63;;;26.30;;
611;SDS011;293;53.888;11.464;2022-08-19T01:32:39;32.23;;;29.80;;
611;SDS011;293;53.888;11.464;2022-08-19T01:35:07;31.63;;;28.93;;
611;SDS011;293;53.888;11.464;2022-08-19T01:37:43;27.73;;;25.33;;
611;SDS011;293;53.888;11.464;2022-08-19T01:40:11;30.07;;;27.27;;
611;SDS011;293;53.888;11.464;2022-08-19T01:42:38;29.63;;;27.20;;
611;SDS011;293;53.888;11.464;2022-08-19T01:45:06;27.80;;;25.20;;
611;SDS011;293;53.888;11.464;2022-08-19T01:47:34;34.37;;;31.53;;
611;SDS011;293;53.888;11.464;2022-08-19T01:50:01;30.53;;;27.80;;
611;SDS011;293;53.888;11.464;2022-08-19T01:52:29;27.00;;;24.67;;
611;SDS011;293;53.888;11.464;2022-08-19T01:54:58;31.53;;;28.63;;
611;SDS011;293;53.888;11.464;2022-08-19T01:57:24;28.80;;;26.47;;
611;SDS011;293;53.888;11.464;2022-08-19T01:59:51;32.07;;;29.30;;
611;SDS011;293;53.888;11.464;2022-08-19T02:02:18;27.83;;;25.57;;
611;SDS011;293;53.888;11.464;2022-08-19T02:04:45;29.93;;;27.63;;
611;SDS011;293;53.888;11.464;2022-08-19T02:07:12;30.07;;;27.63;;
611;SDS011;293;53.888;11.464;2022-08-19T02:09:39;32.07;;;28.97;;
611;SDS011;293;53.888;11.464;2022-08-19T02:12:08;29.40;;;26.70;;
611;SDS011;293;53.888;11.464;2022-08-19T02:14:34;29.80;;;27.20;;
611;SDS011;293;53.888;11.464;2022-08-19T02:17:02;31.23;;;28.50;;
611;SDS011;293;53.888;11.464;2022-08-19T02:19:29;29.97;;;27.73;;
611;SDS011;293;53.888;11.464;2022-08-19T02:21:57;30.83;;;28.20;;
611;SDS011;293;53.888;11.464;2022-08-19T02:24:24;34.20;;;30.77;;
611;SDS011;293;53.888;11.464;2022-08-19T02:26:51;32.90;;;29.97;;
611;SDS011;293;53.888;11.464;2022-08-19T02:29:20;32.90;;;29.77;;
611;SDS011;293;53.888;11.464;2022-08-19T02:31:47;31.50;;;28.43;;
611;SDS011;293;53.888;11.464;2022-08-19T02:34:14;35.00;;;31.90;;
611;SDS011;293;53.888;11.464;2022-08-19T02:36:40;32.23;;;29.53;;
611;SDS011;293;53.888;11.464;2022-08-19T02:39:07;39.10;;;35.63;;
611;SDS011;293;53.888;11.464;2022-08-19T02:41:34;33.93;;;30.73;;
611;SDS011;293;53.888;11.464;2022-08-19T02:44:01;35.20;;;31.67;;
611;SDS011;293;53.888;11.464;2022-08-19T02:46:31;33.10;;;30.00;;
611;SDS011;293;53.888;11.464;2022-08-19T02:48:59;40.90;;;37.10;;
611;SDS011;293;53.888;11.464;2022-08-19T02:51:28;32.63;;;29.20;;
611;SDS011;293;53.888;11.464;2022-08-19T02:53:56;35.83;;;32.30;;
611;SDS011;293;53.888;11.464;2022-08-19T02:56:23;32.17;;;29.17;;
611;SDS011;293;53.888;11.464;2022-08-19T02:58:52;38.77;;;35.47;;
611;SDS011;293;53.888;11.464;2022-08-19T03:01:20;35.97;;;32.67;;
611;SDS011;293;53.888;11.464;2022-08-19T03:03:50;35.10;;;31.83;;
611;SDS011;293;53.888;11.464;2022-08-19T03:06:17;35.93;;;32.53;;
611;SDS011;293;53.888;11.464;2022-08-19T03:08:45;34.90;;;31.50;;
611;SDS011;293;53.888;11.464;2022-08-19T03:11:14;37.30;;;33.80;;
611;SDS011;293;53.888;11.464;2022-08-19T03:13:41;41.30;;;37.10;;
611;SDS011;293;53.888;11.464;2022-08-19T03:16:09;32.93;;;29.73;;
611;SDS011;293;53.888;11.464;2022-08-19T03:18:37;36.70;;;33.17;;
611;SDS011;293;53.888;11.464;2022-08-19T03:21:05;37.93;;;34.23;;
611;SDS011;293;53.888;11.464;2022-08-19T03:23:32;37.50;;;33.87;;
611;SDS011;293;53.888;11.464;2022-08-19T03:26:02;34.23;;;30.77;;
611;SDS011;293;53.888;11.464;2022-08-19T03:28:31;38.70;;;34.60;;
611;SDS011;293;53.888;11.464;2022-08-19T03:30:59;36.57;;;32.87;;
611;SDS011;293;53.888;11.464;2022-08-19T03:33:29;38.37;;;34.40;;
611;SDS011;293;53.888;11.464;2022-08-19T03:36:01;34.63;;;31.10;;
611;SDS011;293;53.888;11.464;2022-08-19T03:38:31;33.77;;;30.77;;
611;SDS011;293;53.888;11.464;2022-08-19T03:41:01;36.77;;;33.17;;
611;SDS011;293;53.888;11.464;2022-08-19T03:43:31;40.03;;;36.17;;
611;SDS011;293;53.888;11.464;2022-08-19T03:46:02;39.53;;;35.53;;
611;SDS011;293;53.888;11.464;2022-08-19T03:48:31;37.90;;;34.20;;
611;SDS011;293;53.888;11.464;2022-08-19T03:50:58;36.97;;;33.43;;
611;SDS011;293;53.888;11.464;2022-08-19T03:53:26;36.57;;;33.13;;
611;SDS011;293;53.888;11.464;2022-08-19T03:55:55;37.03;;;33.10;;
611;SDS011;293;53.888;11.464;2022-08-19T03:58:23;31.93;;;29.03;;
611;SDS011;293;53.888;11.464;2022-08-19T04:00:50;36.50;;;32.70;;
611;SDS011;293;53.888;11.464;2022-08-19T04:03:17;39.10;;;34.10;;
611;SDS011;293;53.888;11.464;2022-08-19T04:05:45;36.03;;;32.73;;
611;SDS011;293;53.888;11.464;2022-08-19T04:08:13;33.23;;;30.23;;
611;SDS011;293;53.888;11.464;2022-08-19T04:10:45;34.43;;;31.07;;
611;SDS011;293;53.888;11.464;2022-08-19T04:13:14;37.63;;;33.33;;
611;SDS011;293;53.888;11.464;2022-08-19T04:15:42;39.53;;;35.63;;
611;SDS011;293;53.888;11.464;2022-08-19T04:18:11;37.67;;;34.07;;
611;SDS011;293;53.888;11.464;2022-08-19T04:20:40;44.03;;;39.17;;
611;SDS011;293;53.888;11.464;2022-08-19T04:23:08;38.07;;;34.07;;
611;SDS011;293;53.888;11.464;2022-08-19T04:25:36;37.90;;;34.17;;
611;SDS011;293;53.888;11.464;2022-08-19T04:28:04;33.97;;;30.57;;
611;SDS011;293;53.888;11.464;2022-08-19T04:30:38;37.07;;;33.37;;
611;SDS011;293;53.888;11.464;2022-08-19T04:33:06;38.23;;;34.40;;
611;SDS011;293;53.888;11.464;2022-08-19T04:35:34;47.43;;;42.33;;
611;SDS011;293;53.888;11.464;2022-08-19T04:38:03;42.50;;;38.10;;
611;SDS011;293;53.888;11.464;2022-08-19T04:40:30;39.90;;;35.70;;
611;SDS011;293;53.888;11.464;2022-08-19T04:43:14;36.63;;;32.77;;
611;SDS011;293;53.888;11.464;2022-08-19T04:45:43;49.57;;;41.73;;
611;SDS011;293;53.888;11.464;2022-08-19T04:48:11;38.17;;;34.00;;
611;SDS011;293;53.888;11.464;2022-08-19T04:50:39;36.50;;;32.70;;
611;SDS011;293;53.888;11.464;2022-08-19T04:53:07;43.03;;;38.70;;
611;SDS011;293;53.888;11.464;2022-08-19T04:55:37;35.70;;;32.33;;
611;SDS011;293;53.888;11.464;2022-08-19T04:58:05;35.23;;;31.70;;
611;SDS011;293;53.888;11.464;2022-08-19T05:00:32;37.50;;;33.80;;
611;SDS011;293;53.888;11.464;2022-08-19T05:03:00;40.57;;;34.27;;
611;SDS011;293;53.888;11.464;2022-08-19T05:05:27;43.07;;;38.47;;
611;SDS011;293;53.888;11.464;2022-08-19T05:07:56;41.50;;;33.60;;
611;SDS011;293;53.888;11.464;2022-08-19T05:10:23;41.60;;;36.40;;
611;SDS011;293;53.888;11.464;2022-08-19T05:12:50;51.67;;;39.57;;
611;SDS011;293;53.888;11.464;2022-08-19T05:15:17;40.20;;;36.30;;
611;SDS011;293;53.888;11.464;2022-08-19T05:17:44;35.40;;;31.67;;
611;SDS011;293;53.888;11.464;2022-08-19T05:20:26;37.07;;;33.23;;
611;SDS011;293;53.888;11.464;2022-08-19T05:23:11;36.80;;;32.90;;
611;SDS011;293;53.888;11.464;2022-08-19T05:25:40;33.83;;;30.23;;
611;SDS011;293;53.888;11.464;2022-08-19T05:28:07;38.93;;;34.63;;
611;SDS011;293;53.888;11.464;2022-08-19T05:30:34;41.87;;;36.70;;
611;SDS011;293;53.888;11.464;2022-08-19T05:33:01;40.73;;;36.50;;
611;SDS011;293;53.888;11.464;2022-08-19T05:35:29;39.43;;;35.40;;
611;SDS011;293;53.888;11.464;2022-08-19T05:37:56;37.90;;;33.37;;
611;SDS011;293;53.888;11.464;2022-08-19T05:40:23;35.17;;;30.80;;
611;SDS011;293;53.888;11.464;2022-08-19T05:42:50;40.90;;;36.50;;
611;SDS011;293;53.888;11.464;2022-08-19T05:45:18;34.50;;;30.83;;
611;SDS011;293;53.888;11.464;2022-08-19T05:47:45;37.57;;;33.50;;
611;SDS011;293;53.888;11.464;2022-08-19T05:50:12;36.87;;;32.67;;
611;SDS011;293;53.888;11.464;2022-08-19T05:52:40;32.00;;;28.73;;
611;SDS011;293;53.888;11.464;2022-08-19T05:55:07;35.50;;;30.13;;
611;SDS011;293;53.888;11.464;2022-08-19T05:57:34;40.47;;;34.13;;
611;SDS011;293;53.888;11.464;2022-08-19T06:00:01;33.83;;;30.20;;
611;SDS011;293;53.888;11.464;2022-08-19T06:02:32;51.80;;;46.30;;
611;SDS011;293;53.888;11.464;2022-08-19T06:05:00;59.90;;;54.50;;
611;SDS011;293;53.888;11.464;2022-08-19T06:07:27;47.47;;;42.43;;
611;SDS011;293;53.888;11.464;2022-08-19T06:09:56;37.20;;;33.43;;
611;SDS011;293;53.888;11.464;2022-08-19T06:12:22;35.13;;;30.73;;
611;SDS011;293;53.888;11.464;2022-08-19T06:14:54;35.27;;;31.40;;
611;SDS011;293;53.888;11.464;2022-08-19T06:17:22;31.93;;;28.70;;
611;SDS011;293;53.888;11.464;2022-08-19T06:19:50;32.43;;;27.73;;
611;SDS011;293;53.888;11.464;2022-08-19T06:22:17;33.27;;;29.40;;
611;SDS011;293;53.888;11.464;2022-08-19T06:24:43;45.17;;;40.67;;
611;SDS011;293;53.888;11.464;2022-08-19T06:27:12;37.13;;;33.40;;
611;SDS011;293;53.888;11.464;2022-08-19T06:29:38;33.50;;;30.23;;
611;SDS011;293;53.888;11.464;2022-08-19T06:32:05;48.53;;;36.37;;
611;SDS011;293;53.888;11.464;2022-08-19T06:34:32;44.53;;;36.83;;
611;SDS011;293;53.888;11.464;2022-08-19T06:37:00;36.07;;;31.27;;
611;SDS011;293;53.888;11.464;2022-08-19T06:39:29;35.63;;;31.70;;
611;SDS011;293;53.888;11.464;2022-08-19T06:41:59;35.53;;;31.20;;
611;SDS011;293;53.888;11.464;2022-08-19T06:44:30;36.00;;;32.20;;
611;SDS011;293;53.888;11.464;2022-08-19T06:47:01;40.77;;;33.07;;
611;SDS011;293;53.888;11.464;2022-08-19T06:49:28;35.10;;;31.40;;
611;SDS011;293;53.888;11.464;2022-08-19T06:51:55;41.73;;;35.57;;
611;SDS011;293;53.888;11.464;2022-08-19T06:54:23;41.03;;;33.77;;
611;SDS011;293;53.888;11.464;2022-08-19T06:56:51;46.77;;;37.20;;
611;SDS011;293;53.888;11.464;2022-08-19T06:59:18;35.23;;;31.43;;
611;SDS011;293;53.888;11.464;2022-08-19T07:01:49;37.73;;;33.70;;
611;SDS011;293;53.888;11.464;2022-08-19T07:04:18;38.17;;;33.63;;
611;SDS011;293;53.888;11.464;2022-08-19T07:06:47;36.10;;;32.20;;
611;SDS011;293;53.888;11.464;2022-08-19T07:09:15;37.90;;;32.57;;
611;SDS011;293;53.888;11.464;2022-08-19T07:11:43;31.57;;;28.57;;
611;SDS011;293;53.888;11.464;2022-08-19T07:14:11;35.00;;;31.20;;
611;SDS011;293;53.888;11.464;2022-08-19T07:16:40;38.70;;;34.60;;
611;SDS011;293;53.888;11.464;2022-08-19T07:19:09;37.83;;;33.67;;
611;SDS011;293;53.888;11.464;2022-08-19T07:21:35;38.23;;;34.23;;
611;SDS011;293;53.888;11.464;2022-08-19T07:24:03;35.17;;;31.53;;
611;SDS011;293;53.888;11.464;2022-08-19T07:26:33;40.57;;;35.97;;
611;SDS011;293;53.888;11.464;2022-08-19T07:29:04;35.90;;;32.03;;
611;SDS011;293;53.888;11.464;2022-08-19T07:31:32;36.77;;;32.83;;
611;SDS011;293;53.888;11.464;2022-08-19T07:34:02;42.53;;;37.90;;
611;SDS011;293;53.888;11.464;2022-08-19T07:36:33;37.30;;;31.70;;
611;SDS011;293;53.888;11.464;2022-08-19T07:39:03;39.90;;;35.80;;
611;SDS011;293;53.888;11.464;2022-08-19T07:41:32;41.43;;;33.40;;
611;SDS011;293;53.888;11.464;2022-08-19T07:44:02;40.37;;;36.00;;
611;SDS011;293;53.888;11.464;2022-08-19T07:46:30;39.90;;;35.20;;
611;SDS011;293;53.888;11.464;2022-08-19T07:48:58;37.43;;;33.50;;
611;SDS011;293;53.888;11.464;2022-08-19T07:51:25;36.97;;;31.97;;
611;SDS011;293;53.888;11.464;2022-08-19T07:53:54;97.23;;;88.23;;
611;SDS011;293;53.888;11.464;2022-08-19T07:56:21;54.70;;;49.03;;
611;SDS011;293;53.888;11.464;2022-08-19T07:58:49;39.37;;;35.10;;
611;SDS011;293;53.888;11.464;2022-08-19T08:01:19;43.00;;;35.47;;
611;SDS011;293;53.888;11.464;2022-08-19T08:03:47;33.77;;;30.40;;
611;SDS011;293;53.888;11.464;2022-08-19T08:06:34;37.00;;;33.23;;
611;SDS011;293;53.888;11.464;2022-08-19T08:09:22;40.00;;;36.07;;
611;SDS011;293;53.888;11.464;2022-08-19T08:11:51;38.00;;;34.27;;
611;SDS011;293;53.888;11.464;2022-08-19T08:14:20;43.37;;;38.73;;
611;SDS011;293;53.888;11.464;2022-08-19T08:16:49;38.57;;;33.80;;
611;SDS011;293;53.888;11.464;2022-08-19T08:19:17;36.30;;;32.73;;
611;SDS011;293;53.888;11.464;2022-08-19T08:21:45;41.90;;;37.97;;
611;SDS011;293;53.888;11.464;2022-08-19T08:24:12;36.67;;;33.07;;
611;SDS011;293;53.888;11.464;2022-08-19T08:26:41;36.30;;;32.40;;
611;SDS011;293;53.888;11.464;2022-08-19T08:29:08;43.00;;;38.90;;
611;SDS011;293;53.888;11.464;2022-08-19T08:31:37;36.47;;;32.97;;
611;SDS011;293;53.888;11.464;2022-08-19T08:34:05;37.83;;;34.10;;
611;SDS011;293;53.888;11.464;2022-08-19T08:36:32;36.33;;;32.60;;
611;SDS011;293;53.888;11.464;2022-08-19T08:39:04;43.50;;;39.03;;
611;SDS011;293;53.888;11.464;2022-08-19T08:41:35;43.10;;;38.63;;
611;SDS011;293;53.888;11.464;2022-08-19T08:44:12;37.53;;;33.20;;
611;SDS011;293;53.888;11.464;2022-08-19T08:46:42;42.23;;;38.20;;
611;SDS011;293;53.888;11.464;2022-08-19T08:49:16;38.90;;;34.80;;
611;SDS011;293;53.888;11.464;2022-08-19T08:51:53;38.67;;;34.47;;
611;SDS011;293;53.888;11.464;2022-08-19T08:54:27;36.73;;;32.77;;
611;SDS011;293;53.888;11.464;2022-08-19T08:56:58;44.57;;;39.03;;
611;SDS011;293;53.888;11.464;2022-08-19T08:59:28;41.40;;;36.97;;
611;SDS011;293;53.888;11.464;2022-08-19T09:01:57;37.63;;;33.83;;
611;SDS011;293;53.888;11.464;2022-08-19T09:04:24;46.47;;;37.70;;
611;SDS011;293;53.888;11.464;2022-08-19T09:06:53;38.03;;;34.27;;
611;SDS011;293;53.888;11.464;2022-08-19T09:09:26;43.43;;;39.13;;
611;SDS011;293;53.888;11.464;2022-08-19T09:12:02;37.07;;;33.27;;
611;SDS011;293;53.888;11.464;2022-08-19T09:14:38;38.70;;;34.80;;
611;SDS011;293;53.888;11.464;2022-08-19T09:17:12;39.00;;;34.80;;
611;SDS011;293;53.888;11.464;2022-08-19T09:19:46;42.30;;;38.00;;
611;SDS011;293;53.888;11.464;2022-08-19T09:22:16;44.63;;;40.10;;
611;SDS011;293;53.888;11.464;2022-08-19T09:24:46;44.77;;;40.00;;
611;SDS011;293;53.888;11.464;2022-08-19T09:27:13;45.60;;;40.60;;
611;SDS011;293;53.888;11.464;2022-08-19T09:29:42;52.80;;;47.30;;
611;SDS011;293;53.888;11.464;2022-08-19T09:32:08;49.03;;;43.93;;
611;SDS011;293;53.888;11.464;2022-08-19T09:34:35;48.40;;;43.30;;
611;SDS011;293;53.888;11.464;2022-08-19T09:37:02;42.33;;;37.80;;
611;SDS011;293;53.888;11.464;2022-08-19T09:39:30;51.50;;;42.47;;
611;SDS011;293;53.888;11.464;2022-08-19T09:41:57;35.47;;;31.77;;
611;SDS011;293;53.888;11.464;2022-08-19T09:44:23;49.43;;;42.43;;
611;SDS011;293;53.888;11.464;2022-08-19T09:46:52;49.13;;;39.20;;
611;SDS011;293;53.888;11.464;2022-08-19T09:49:19;41.53;;;35.60;;
611;SDS011;293;53.888;11.464;2022-08-19T09:51:48;46.20;;;38.67;;
611;SDS011;293;53.888;11.464;2022-08-19T09:54:15;43.93;;;39.33;;
611;SDS011;293;53.888;11.464;2022-08-19T09:56:43;45.13;;;40.23;;
611;SDS011;293;53.888;11.464;2022-08-19T09:59:10;36.40;;;32.57;;
611;SDS011;293;53.888;11.464;2022-08-19T10:01:37;42.20;;;37.60;;
611;SDS011;293;53.888;11.464;2022-08-19T10:04:05;45.30;;;40.50;;
611;SDS011;293;53.888;11.464;2022-08-19T10:06:35;40.57;;;36.37;;
611;SDS011;293;53.888;11.464;2022-08-19T10:09:03;40.23;;;35.97;;
611;SDS011;293;53.888;11.464;2022-08-19T10:11:31;37.60;;;33.67;;
611;SDS011;293;53.888;11.464;2022-08-19T10:13:58;39.10;;;35.10;;
611;SDS011;293;53.888;11.464;2022-08-19T10:16:25;34.63;;;30.77;;
611;SDS011;293;53.888;11.464;2022-08-19T10:18:53;39.37;;;35.30;;
611;SDS011;293;53.888;11.464;2022-08-19T10:21:22;40.27;;;36.23;;
611;SDS011;293;53.888;11.464;2022-08-19T10:23:52;39.10;;;34.93;;
611;SDS011;293;53.888;11.464;2022-08-19T10:26:23;43.90;;;39.33;;
611;SDS011;293;53.888;11.464;2022-08-19T10:28:51;44.73;;;40.40;;
611;SDS011;293;53.888;11.464;2022-08-19T10:31:19;35.20;;;31.53;;
611;SDS011;293;53.888;11.464;2022-08-19T10:33:49;38.47;;;34.67;;
611;SDS011;293;53.888;11.464;2022-08-19T10:36:24;37.43;;;33.63;;
611;SDS011;293;53.888;11.464;2022-08-19T10:38:53;38.73;;;35.00;;
611;SDS011;293;53.888;11.464;2022-08-19T10:41:22;39.10;;;34.90;;
611;SDS011;293;53.888;11.464;2022-08-19T10:43:50;44.77;;;39.57;;
611;SDS011;293;53.888;11.464;2022-08-19T10:46:19;41.97;;;37.87;;
611;SDS011;293;53.888;11.464;2022-08-19T10:48:48;40.37;;;36.20;;
611;SDS011;293;53.888;11.464;2022-08-19T10:51:15;56.87;;;51.40;;
611;SDS011;293;53.888;11.464;2022-08-19T10:54:01;46.77;;;42.03;;
611;SDS011;293;53.888;11.464;2022-08-19T10:56:28;38.70;;;34.70;;
611;SDS011;293;53.888;11.464;2022-08-19T10:59:13;39.73;;;35.73;;
611;SDS011;293;53.888;11.464;2022-08-19T11:01:42;43.20;;;38.50;;
611;SDS011;293;53.888;11.464;2022-08-19T11:04:09;40.70;;;36.70;;
611;SDS011;293;53.888;11.464;2022-08-19T11:06:38;41.67;;;37.40;;
611;SDS011;293;53.888;11.464;2022-08-19T11:09:07;35.20;;;31.47;;
611;SDS011;293;53.888;11.464;2022-08-19T11:11:35;36.73;;;33.20;;
611;SDS011;293;53.888;11.464;2022-08-19T11:14:05;40.23;;;36.20;;
611;SDS011;293;53.888;11.464;2022-08-19T11:16:32;46.43;;;41.60;;
611;SDS011;293;53.888;11.464;2022-08-19T11:18:59;37.77;;;33.90;;
611;SDS011;293;53.888;11.464;2022-08-19T11:21:27;36.20;;;32.57;;
611;SDS011;293;53.888;11.464;2022-08-19T11:23:57;36.10;;;32.70;;
611;SDS011;293;53.888;11.464;2022-08-19T11:26:27;42.33;;;38.50;;
611;SDS011;293;53.888;11.464;2022-08-19T11:28:56;42.10;;;38.20;;
611;SDS011;293;53.888;11.464;2022-08-19T11:31:24;41.37;;;37.07;;
611;SDS011;293;53.888;11.464;2022-08-19T11:33:52;38.60;;;34.60;;
611;SDS011;293;53.888;11.464;2022-08-19T11:36:20;38.37;;;34.83;;
611;SDS011;293;53.888;11.464;2022-08-19T11:38:47;46.97;;;42.50;;
611;SDS011;293;53.888;11.464;2022-08-19T11:41:15;39.93;;;36.40;;
611;SDS011;293;53.888;11.464;2022-08-19T11:43:45;39.90;;;36.20;;
611;SDS011;293;53.888;11.464;2022-08-19T11:46:13;34.13;;;30.83;;
611;SDS011;293;53.888;11.464;2022-08-19T11:48:41;46.23;;;41.50;;
611;SDS011;293;53.888;11.464;2022-08-19T11:51:09;48.80;;;44.10;;
611;SDS011;293;53.888;11.464;2022-08-19T11:53:37;43.03;;;38.97;;
611;SDS011;293;53.888;11.464;2022-08-19T11:56:05;39.93;;;36.03;;
611;SDS011;293;53.888;11.464;2022-08-19T11:58:33;39.90;;;36.30;;
611;SDS011;293;53.888;11.464;2022-08-19T12:01:05;42.03;;;38.10;;
611;SDS011;293;53.888;11.464;2022-08-19T12:03:33;42.03;;;38.33;;
611;SDS011;293;53.888;11.464;2022-08-19T12:06:02;43.60;;;39.50;;
611;SDS011;293;53.888;11.464;2022-08-19T12:08:31;41.33;;;37.77;;
611;SDS011;293;53.888;11.464;2022-08-19T12:10:57;39.60;;;35.80;;
611;SDS011;293;53.888;11.464;2022-08-19T12:13:25;51.20;;;46.90;;
611;SDS011;293;53.888;11.464;2022-08-19T12:15:53;44.00;;;39.73;;
611;SDS011;293;53.888;11.464;2022-08-19T12:18:21;43.60;;;39.80;;
611;SDS011;293;53.888;11.464;2022-08-19T12:20:49;37.13;;;33.73;;
611;SDS011;293;53.888;11.464;2022-08-19T12:23:17;40.77;;;36.97;;
611;SDS011;293;53.888;11.464;2022-08-19T12:25:45;41.03;;;37.27;;
611;SDS011;293;53.888;11.464;2022-08-19T12:28:15;40.13;;;36.37;;
611;SDS011;293;53.888;11.464;2022-08-19T12:30:42;44.00;;;39.97;;
611;SDS011;293;53.888;11.464;2022-08-19T12:33:08;33.77;;;30.63;;
611;SDS011;293;53.888;11.464;2022-08-19T12:35:40;41.03;;;37.40;;
611;SDS011;293;53.888;11.464;2022-08-19T12:38:07;39.93;;;36.23;;
611;SDS011;293;53.888;11.464;2022-08-19T12:40:34;38.77;;;35.37;;
611;SDS011;293;53.888;11.464;2022-08-19T12:43:01;39.50;;;35.70;;
611;SDS011;293;53.888;11.464;2022-08-19T12:45:29;40.67;;;36.93;;
611;SDS011;293;53.888;11.464;2022-08-19T12:47:55;33.40;;;29.97;;
611;SDS011;293;53.888;11.464;2022-08-19T12:50:23;35.20;;;32.00;;
611;SDS011;293;53.888;11.464;2022-08-19T12:52:51;35.03;;;32.03;;
611;SDS011;293;53.888;11.464;2022-08-19T12:55:18;31.67;;;29.07;;
611;SDS011;293;53.888;11.464;2022-08-19T12:57:45;31.90;;;29.00;;
611;SDS011;293;53.888;11.464;2022-08-19T13:00:14;33.23;;;29.80;;
611;SDS011;293;53.888;11.464;2022-08-19T13:02:44;60.60;;;55.23;;
611;SDS011;293;53.888;11.464;2022-08-19T13:05:13;29.40;;;26.60;;
611;SDS011;293;53.888;11.464;2022-08-19T13:07:41;36.50;;;33.30;;
611;SDS011;293;53.888;11.464;2022-08-19T13:10:12;26.60;;;24.20;;
611;SDS011;293;53.888;11.464;2022-08-19T13:12:41;24.13;;;22.20;;
611;SDS011;293;53.888;11.464;2022-08-19T13:15:09;30.03;;;27.17;;
611;SDS011;293;53.888;11.464;2022-08-19T13:17:37;27.93;;;25.33;;
611;SDS011;293;53.888;11.464;2022-08-19T13:20:04;26.80;;;24.60;;
611;SDS011;293;53.888;11.464;2022-08-19T13:22:32;27.27;;;25.03;;
611;SDS011;293;53.888;11.464;2022-08-19T13:25:00;26.83;;;24.40;;
611;SDS011;293;53.888;11.464;2022-08-19T13:27:29;26.43;;;24.13;;
611;SDS011;293;53.888;11.464;2022-08-19T13:29:55;26.33;;;24.33;;
611;SDS011;293;53.888;11.464;2022-08-19T13:32:39;26.40;;;24.03;;
611;SDS011;293;53.888;11.464;2022-08-19T13:35:24;26.93;;;24.13;;
611;SDS011;293;53.888;11.464;2022-08-19T13:37:50;26.73;;;24.60;;
611;SDS011;293;53.888;11.464;2022-08-19T13:40:18;26.47;;;24.10;;
611;SDS011;293;53.888;11.464;2022-08-19T13:42:53;26.03;;;23.67;;
611;SDS011;293;53.888;11.464;2022-08-19T13:45:21;25.13;;;22.97;;
611;SDS011;293;53.888;11.464;2022-08-19T13:47:50;34.20;;;31.30;;
611;SDS011;293;53.888;11.464;2022-08-19T13:50:27;25.60;;;23.40;;
611;SDS011;293;53.888;11.464;2022-08-19T13:52:56;25.30;;;23.07;;
611;SDS011;293;53.888;11.464;2022-08-19T13:55:23;23.70;;;21.70;;
611;SDS011;293;53.888;11.464;2022-08-19T13:57:53;23.40;;;21.50;;
611;SDS011;293;53.888;11.464;2022-08-19T14:00:21;22.43;;;20.47;;
611;SDS011;293;53.888;11.464;2022-08-19T14:02:51;23.80;;;21.80;;
611;SDS011;293;53.888;11.464;2022-08-19T14:05:20;22.23;;;20.20;;
611;SDS011;293;53.888;11.464;2022-08-19T14:07:49;19.70;;;18.00;;
611;SDS011;293;53.888;11.464;2022-08-19T14:10:16;22.63;;;20.60;;
611;SDS011;293;53.888;11.464;2022-08-19T14:12:44;21.97;;;19.93;;
611;SDS011;293;53.888;11.464;2022-08-19T14:15:13;22.70;;;20.60;;
611;SDS011;293;53.888;11.464;2022-08-19T14:17:41;19.80;;;18.20;;
611;SDS011;293;53.888;11.464;2022-08-19T14:20:11;22.50;;;20.63;;
611;SDS011;293;53.888;11.464;2022-08-19T14:22:40;23.40;;;21.20;;
611;SDS011;293;53.888;11.464;2022-08-19T14:25:10;22.30;;;20.10;;
611;SDS011;293;53.888;11.464;2022-08-19T14:27:38;20.93;;;18.87;;
611;SDS011;293;53.888;11.464;2022-08-19T14:30:07;23.40;;;21.50;;
611;SDS011;293;53.888;11.464;2022-08-19T14:32:37;23.53;;;21.30;;
611;SDS011;293;53.888;11.464;2022-08-19T14:35:04;21.97;;;20.17;;
611;SDS011;293;53.888;11.464;2022-08-19T14:37:32;22.50;;;20.60;;
611;SDS011;293;53.888;11.464;2022-08-19T14:39:59;20.70;;;18.80;;
611;SDS011;293;53.888;11.464;2022-08-19T14:42:26;21.67;;;19.50;;
611;SDS011;293;53.888;11.464;2022-08-19T14:44:56;23.47;;;21.33;;
611;SDS011;293;53.888;11.464;2022-08-19T14:47:24;23.17;;;20.77;;
611;SDS011;293;53.888;11.464;2022-08-19T14:49:53;20.57;;;18.63;;
611;SDS011;293;53.888;11.464;2022-08-19T14:52:20;21.73;;;19.77;;
611;SDS011;293;53.888;11.464;2022-08-19T14:54:47;23.63;;;21.43;;
611;SDS011;293;53.888;11.464;2022-08-19T14:57:14;23.70;;;21.40;;
611;SDS011;293;53.888;11.464;2022-08-19T14:59:41;24.40;;;22.03;;
611;SDS011;293;53.888;11.464;2022-08-19T15:02:09;24.17;;;22.07;;
611;SDS011;293;53.888;11.464;2022-08-19T15:04:36;20.97;;;18.77;;
611;SDS011;293;53.888;11.464;2022-08-19T15:07:05;23.77;;;21.60;;
611;SDS011;293;53.888;11.464;2022-08-19T15:09:32;28.20;;;23.60;;